createdAt,value
2023-10-25T00:00:09.769Z,96547.14
2023-10-25T00:02:39.449Z,96546.37
2023-10-25T00:05:08.212Z,96552.34
2023-10-25T00:07:36.201Z,96548.86
2023-10-25T00:10:04.458Z,96531.95
2023-10-25T00:12:32.630Z,96513.45
2023-10-25T00:15:00.638Z,96501.53
2023-10-25T00:17:28.638Z,96514.86
2023-10-25T00:19:56.469Z,96516.27
2023-10-25T00:22:24.341Z,96510.72
2023-10-25T00:24:51.917Z,96510.34
2023-10-25T00:27:19.690Z,96498.05
2023-10-25T00:29:47.447Z,96488.83
2023-10-25T00:32:18.076Z,96481.70
2023-10-25T00:34:45.980Z,96474.57
2023-10-25T00:37:13.971Z,96469.75
2023-10-25T00:39:42.125Z,96460.88
2023-10-25T00:42:12.269Z,96456.82
2023-10-25T00:44:40.330Z,96450.84
2023-10-25T00:47:08.751Z,96447.37
2023-10-25T00:49:36.669Z,96448.52
2023-10-25T00:52:05.865Z,96443.89
2023-10-25T00:54:33.729Z,96447.17
2023-10-25T00:57:01.751Z,96448.32
2023-10-25T00:59:31.908Z,96446.74
2023-10-25T01:02:01.320Z,96449.44
2023-10-25T01:04:30.035Z,96436.94
2023-10-25T01:06:58.152Z,96430.20
2023-10-25T01:09:25.942Z,96440.81
2023-10-25T01:11:54.395Z,96453.20
2023-10-25T01:14:27.681Z,96456.09
2023-10-25T01:16:55.861Z,96457.30
2023-10-25T01:19:23.786Z,96460.39
2023-10-25T01:21:51.692Z,96462.52
2023-10-25T01:24:19.734Z,96466.80
2023-10-25T01:26:47.664Z,96458.89
2023-10-25T01:29:15.441Z,96452.34
2023-10-25T01:31:43.303Z,96451.77
2023-10-25T01:34:11.134Z,96453.92
2023-10-25T01:36:39.135Z,96457.74
2023-10-25T01:39:07.070Z,96452.92
2023-10-25T01:41:34.926Z,96450.98
2023-10-25T01:44:02.834Z,96442.49
2023-10-25T01:46:30.821Z,96432.81
2023-10-25T01:49:00.304Z,96423.69
2023-10-25T01:51:28.146Z,96422.05
2023-10-25T01:53:56.412Z,96417.14
2023-10-25T01:56:24.139Z,96419.24
2023-10-25T01:58:52.065Z,96407.81
2023-10-25T02:01:19.946Z,96409.13
2023-10-25T02:03:47.941Z,96402.89
2023-10-25T02:06:16.475Z,96402.62
2023-10-25T02:08:44.496Z,96402.94
2023-10-25T02:11:16.443Z,96407.66
2023-10-25T02:13:44.245Z,96419.37
2023-10-25T02:16:14.984Z,96418.74
2023-10-25T02:18:42.893Z,96404.85
2023-10-25T02:21:11.439Z,96401.95
2023-10-25T02:23:39.884Z,96404.66
2023-10-25T02:26:07.879Z,96399.25
2023-10-25T02:28:35.686Z,96413.30
2023-10-25T02:31:03.553Z,96417.14
2023-10-25T02:33:31.366Z,96406.34
2023-10-25T02:35:59.233Z,96398.05
2023-10-25T02:38:27.508Z,96393.80
2023-10-25T02:40:56.835Z,96385.48
2023-10-25T02:43:24.901Z,96384.51
2023-10-25T02:45:53.409Z,96389.13
2023-10-25T02:48:23.099Z,96397.57
2023-10-25T02:50:50.826Z,96389.42
2023-10-25T02:53:18.673Z,96379.35
2023-10-25T02:55:48.034Z,96373.33
2023-10-25T02:58:16.626Z,96369.22
2023-10-25T03:00:44.872Z,96378.21
2023-10-25T03:03:12.758Z,96371.61
2023-10-25T03:05:40.730Z,96375.45
2023-10-25T03:08:08.602Z,96370.20
2023-10-25T03:10:36.516Z,96369.23
2023-10-25T03:13:04.542Z,96374.20
2023-10-25T03:15:32.527Z,96383.29
2023-10-25T03:18:00.326Z,96380.36
2023-10-25T03:20:29.272Z,96372.64
2023-10-25T03:23:00.151Z,96365.33
2023-10-25T03:25:28.482Z,96362.06
2023-10-25T03:27:56.484Z,96359.36
2023-10-25T03:30:24.059Z,96348.00
2023-10-25T03:32:51.718Z,96339.91
2023-10-25T03:35:19.655Z,96341.48
2023-10-25T03:37:47.503Z,96330.47
2023-10-25T03:40:15.872Z,96334.66
2023-10-25T03:42:43.839Z,96334.66
2023-10-25T03:45:11.845Z,96342.20
2023-10-25T03:47:39.565Z,96344.09
2023-10-25T03:50:08.621Z,96334.89
2023-10-25T03:52:36.951Z,96342.41
2023-10-25T03:55:05.894Z,96345.53
2023-10-25T03:57:33.775Z,96345.53
2023-10-25T04:00:01.262Z,96329.36
2023-10-25T04:02:29.399Z,96336.44
2023-10-25T04:04:57.074Z,96328.35
2023-10-25T04:07:25.046Z,96327.00
2023-10-25T04:09:53.065Z,96326.23
2023-10-25T04:12:20.897Z,96313.89
2023-10-25T04:14:48.856Z,96313.66
2023-10-25T04:17:16.845Z,96319.44
2023-10-25T04:19:44.704Z,96314.81
2023-10-25T04:22:14.311Z,96308.84
2023-10-25T04:24:42.168Z,96314.81
2023-10-25T04:27:10.089Z,96313.27
2023-10-25T04:29:37.971Z,96308.22
2023-10-25T04:32:06.819Z,96310.91
2023-10-25T04:34:34.428Z,96309.36
2023-10-25T04:37:02.178Z,96314.38
2023-10-25T04:39:33.173Z,96308.79
2023-10-25T04:42:00.872Z,96318.23
2023-10-25T04:44:28.833Z,96320.92
2023-10-25T04:46:56.613Z,96321.36
2023-10-25T04:49:26.358Z,96313.09
2023-10-25T04:51:54.235Z,96303.11
2023-10-25T04:54:21.695Z,96309.47
2023-10-25T04:56:49.652Z,96311.83
2023-10-25T04:59:17.492Z,96309.91
2023-10-25T05:01:47.405Z,96314.14
2023-10-25T05:04:18.407Z,96314.92
2023-10-25T05:06:47.417Z,96319.97
2023-10-25T05:09:16.954Z,96321.52
2023-10-25T05:11:50.091Z,96324.98
2023-10-25T05:14:18.409Z,96330.38
2023-10-25T05:16:46.889Z,96325.41
2023-10-25T05:19:15.427Z,96334.11
2023-10-25T05:21:44.651Z,96328.94
2023-10-25T05:24:13.431Z,96329.14
2023-10-25T05:26:41.743Z,96334.96
2023-10-25T05:29:10.047Z,96331.52
2023-10-25T05:31:42.737Z,96332.09
2023-10-25T05:34:13.298Z,96329.63
2023-10-25T05:36:42.026Z,96329.97
2023-10-25T05:39:10.722Z,96321.48
2023-10-25T05:41:41.588Z,96318.35
2023-10-25T05:44:17.580Z,96316.43
2023-10-25T05:46:45.274Z,96312.37
2023-10-25T05:49:13.625Z,96312.81
2023-10-25T05:51:42.469Z,96303.56
2023-10-25T05:54:11.128Z,96299.95
2023-10-25T05:56:39.422Z,96307.66
2023-10-25T05:59:07.941Z,96310.56
2023-10-25T06:01:44.388Z,96317.53
2023-10-25T06:04:13.821Z,96305.79
2023-10-25T06:06:44.649Z,96297.13
2023-10-25T06:09:14.160Z,96290.80
2023-10-25T06:11:42.767Z,96292.58
2023-10-25T06:14:11.489Z,96290.28
2023-10-25T06:16:39.413Z,96301.12
2023-10-25T06:19:07.868Z,96305.41
2023-10-25T06:21:35.757Z,96307.81
2023-10-25T06:24:03.784Z,96316.58
2023-10-25T06:26:31.615Z,96312.42
2023-10-25T06:28:59.919Z,96306.31
2023-10-25T06:31:27.887Z,96305.63
2023-10-25T06:33:55.715Z,96305.05
2023-10-25T06:36:23.954Z,96309.56
2023-10-25T06:38:51.988Z,96310.19
2023-10-25T06:41:25.311Z,96300.58
2023-10-25T06:43:54.334Z,96308.30
2023-10-25T06:46:22.867Z,96315.83
2023-10-25T06:48:53.014Z,96312.00
2023-10-25T06:51:21.387Z,96304.67
2023-10-25T06:53:49.809Z,96313.94
2023-10-25T06:56:18.404Z,96313.59
2023-10-25T06:58:46.833Z,96313.79
2023-10-25T07:01:20.235Z,96319.03
2023-10-25T07:03:50.438Z,96320.19
2023-10-25T07:06:20.000Z,96311.09
2023-10-25T07:08:49.526Z,96314.78
2023-10-25T07:11:17.316Z,96313.98
2023-10-25T07:13:45.264Z,96308.96
2023-10-25T07:16:13.375Z,96314.36
2023-10-25T07:18:41.675Z,96311.66
2023-10-25T07:21:10.190Z,96297.00
2023-10-25T07:23:38.100Z,96291.22
2023-10-25T07:26:07.333Z,96284.46
2023-10-25T07:28:35.203Z,96287.16
2023-10-25T07:31:03.615Z,96279.64
2023-10-25T07:33:31.272Z,96276.94
2023-10-25T07:35:59.998Z,96269.19
2023-10-25T07:38:27.969Z,96282.53
2023-10-25T07:40:55.684Z,96304.33
2023-10-25T07:43:25.068Z,96313.63
2023-10-25T07:45:55.910Z,96309.63
2023-10-25T07:48:22.482Z,96311.01
2023-10-25T07:50:50.067Z,96306.00
2023-10-25T07:53:18.066Z,96315.10
2023-10-25T08:00:51.014Z,96315.14
2023-10-25T08:03:19.160Z,96330.00
2023-10-25T08:05:47.226Z,96326.37
2023-10-25T08:08:15.271Z,96332.77
2023-10-25T08:10:43.141Z,96331.62
2023-10-25T08:13:11.309Z,96334.16
2023-10-25T08:15:39.211Z,96338.05
2023-10-25T08:18:07.036Z,96341.16
2023-10-25T08:20:37.641Z,96328.67
2023-10-25T08:23:05.589Z,96323.27
2023-10-25T08:25:36.410Z,96324.44
2023-10-25T08:28:04.459Z,96304.02
2023-10-25T08:30:32.232Z,96299.95
2023-10-25T08:33:00.149Z,96287.99
2023-10-25T08:35:28.165Z,96298.84
2023-10-25T08:37:56.153Z,96305.27
2023-10-25T08:40:27.479Z,96302.44
2023-10-25T08:43:00.100Z,96311.97
2023-10-25T08:45:30.540Z,96318.21
2023-10-25T08:47:58.212Z,96319.50
2023-10-25T08:50:27.614Z,96314.39
2023-10-25T08:52:57.968Z,96314.39
2023-10-25T08:55:25.744Z,96314.30
2023-10-25T08:57:56.760Z,96316.78
2023-10-25T09:00:35.804Z,96314.59
2023-10-25T09:02:58.683Z,96315.26
2023-10-25T09:05:29.653Z,96301.09
2023-10-25T09:07:57.943Z,96302.19
2023-10-25T09:10:26.116Z,96296.86
2023-10-25T09:12:53.992Z,96296.06
2023-10-25T09:15:30.176Z,96292.16
2023-10-25T09:17:58.887Z,96289.65
2023-10-25T09:20:33.285Z,96289.81
2023-10-25T09:23:12.347Z,96291.13
2023-10-25T09:25:40.203Z,96278.70
2023-10-25T09:28:28.494Z,96273.48
2023-10-25T09:31:02.479Z,96261.67
2023-10-25T09:33:32.061Z,96263.41
2023-10-25T09:35:59.966Z,96250.29
2023-10-25T09:38:27.839Z,96246.38
2023-10-25T09:40:59.366Z,96234.64
2023-10-25T09:43:28.899Z,96227.75
2023-10-25T09:45:58.850Z,96233.41
2023-10-25T09:48:29.078Z,96229.31
2023-10-25T09:51:15.120Z,96227.87
2023-10-25T09:53:51.212Z,96225.89
2023-10-25T09:56:19.549Z,96219.22
2023-10-25T09:58:47.828Z,96215.58
2023-10-25T10:01:15.447Z,96218.16
2023-10-25T10:03:57.995Z,96220.76
2023-10-25T10:06:46.453Z,96216.50
2023-10-25T10:09:22.395Z,96219.27
2023-10-25T10:11:58.032Z,96208.69
2023-10-25T10:14:34.775Z,96201.52
2023-10-25T10:17:15.266Z,96195.93
2023-10-25T10:19:47.696Z,96190.70
2023-10-25T10:22:20.489Z,96183.13
2023-10-25T10:24:56.504Z,96170.28
2023-10-25T10:27:44.002Z,96172.97
2023-10-25T10:30:35.524Z,96166.53
2023-10-25T10:33:04.838Z,96162.01
2023-10-25T10:35:34.284Z,96164.76
2023-10-25T10:38:03.899Z,96153.88
2023-10-25T10:40:31.627Z,96160.09
2023-10-25T10:42:59.623Z,96153.11
2023-10-25T10:45:31.139Z,96148.86
2023-10-25T10:48:22.743Z,96149.03
2023-10-25T10:50:50.798Z,96146.48
2023-10-25T10:53:18.614Z,96143.73
2023-10-25T10:55:46.497Z,96134.61
2023-10-25T10:58:14.328Z,96129.31
2023-10-25T11:00:45.611Z,96130.61
2023-10-25T11:03:13.580Z,96129.59
2023-10-25T11:05:42.110Z,96132.67
2023-10-25T11:08:14.192Z,96127.02
2023-10-25T11:10:42.476Z,96134.41
2023-10-25T11:13:11.377Z,96126.07
2023-10-25T11:15:39.615Z,96124.50
2023-10-25T11:18:11.721Z,96130.36
2023-10-25T11:20:42.083Z,96129.98
2023-10-25T11:23:10.317Z,96129.98
2023-10-25T11:25:39.077Z,96125.90
2023-10-25T11:28:06.588Z,96129.80
2023-10-25T11:30:35.394Z,96132.94
2023-10-25T11:33:03.546Z,96139.73
2023-10-25T11:35:31.288Z,96139.92
2023-10-25T11:37:59.772Z,96147.31
2023-10-25T11:40:43.940Z,96157.22
2023-10-25T11:43:11.938Z,96157.07
2023-10-25T11:45:41.179Z,96180.45
2023-10-25T11:48:11.454Z,96174.51
2023-10-25T11:50:52.266Z,96174.81
2023-10-25T11:53:21.549Z,96169.12
2023-10-25T11:55:57.197Z,96166.28
2023-10-25T11:58:33.765Z,96165.39
2023-10-25T12:01:37.433Z,96160.73
2023-10-25T12:04:14.252Z,96163.29
2023-10-25T12:06:44.545Z,96166.19
2023-10-25T12:09:16.863Z,96166.58
2023-10-25T12:11:44.601Z,96168.89
2023-10-25T12:14:31.385Z,96173.56
2023-10-25T12:17:16.082Z,96170.64
2023-10-25T12:19:47.738Z,96168.29
2023-10-25T12:23:20.839Z,96180.72
2023-10-25T12:25:03.998Z,96175.83
2023-10-25T12:27:31.517Z,96186.70
2023-10-25T12:29:59.058Z,96185.92
2023-10-25T12:32:26.918Z,96189.63
2023-10-25T12:34:59.005Z,96185.53
2023-10-25T12:37:24.346Z,96199.66
2023-10-25T12:43:01.704Z,96196.48
2023-10-25T12:45:32.312Z,96197.80
2023-10-25T12:48:36.344Z,96194.84
2023-10-25T12:51:32.105Z,96195.18
2023-10-25T13:00:12.098Z,96195.31
2023-10-25T13:02:40.019Z,96198.39
2023-10-25T13:05:09.728Z,96196.23
2023-10-25T13:07:54.084Z,96193.91
2023-10-25T13:10:22.314Z,96192.72
2023-10-25T13:12:53.636Z,96197.78
2023-10-25T13:15:24.837Z,96194.82
2023-10-25T13:18:02.832Z,96191.16
2023-10-25T13:20:31.842Z,96182.23
2023-10-25T13:23:03.597Z,96189.17
2023-10-25T13:25:36.630Z,96194.17
2023-10-25T13:28:29.130Z,96199.55
2023-10-25T13:31:19.987Z,96198.13
2023-10-25T13:35:02.377Z,96205.58
2023-10-25T13:41:23.043Z,96215.07
2023-10-25T13:43:50.634Z,96201.38
2023-10-25T13:46:19.045Z,96208.53
2023-10-25T13:48:46.526Z,96203.99
2023-10-25T13:51:14.344Z,96199.28
2023-10-25T13:53:55.434Z,96208.42
2023-10-25T13:59:50.041Z,96216.25
2023-10-25T14:02:21.018Z,96211.85
2023-10-25T14:04:48.537Z,96212.83
2023-10-25T14:07:55.266Z,96222.40
2023-10-25T14:10:24.731Z,96222.61
2023-10-25T14:12:56.206Z,96225.96
2023-10-25T14:15:23.706Z,96223.23
2023-10-25T14:17:51.556Z,96232.42
2023-10-25T14:20:23.938Z,96235.91
2023-10-25T14:22:51.503Z,96235.91
2023-10-25T14:25:19.090Z,96227.95
2023-10-25T14:27:46.537Z,96229.52
2023-10-25T14:30:18.051Z,96234.41
2023-10-25T14:32:51.524Z,96236.60
2023-10-25T14:38:53.244Z,96233.95
2023-10-25T14:41:24.754Z,96228.33
2023-10-25T14:43:53.094Z,96225.25
2023-10-25T14:46:20.787Z,96228.95
2023-10-25T14:48:50.915Z,96227.80
2023-10-25T14:51:22.619Z,96226.67
2023-10-25T14:53:52.246Z,96221.27
2023-10-25T14:56:21.643Z,96221.85
2023-10-25T14:58:49.604Z,96226.94
2023-10-25T15:01:25.980Z,96234.98
2023-10-25T15:03:55.302Z,96239.08
2023-10-25T15:06:25.152Z,96243.21
2023-10-25T15:08:54.286Z,96252.78
2023-10-25T15:11:23.040Z,96256.13
2023-10-25T15:13:50.915Z,96268.23
2023-10-25T15:16:18.976Z,96262.44
2023-10-25T15:18:47.002Z,96259.58
2023-10-25T15:21:16.301Z,96261.17
2023-10-25T15:23:44.147Z,96263.55
2023-10-25T15:26:13.785Z,96260.08
2023-10-25T15:28:44.849Z,96262.22
2023-10-25T15:31:13.062Z,96271.57
2023-10-25T15:33:41.850Z,96278.20
2023-10-25T15:36:10.102Z,96280.72
2023-10-25T15:38:38.683Z,96280.36
2023-10-25T15:41:25.707Z,96292.59
2023-10-25T15:43:55.240Z,96291.42
2023-10-25T15:46:27.993Z,96291.43
2023-10-25T15:49:00.177Z,96282.12
2023-10-25T15:51:28.001Z,96279.59
2023-10-25T15:53:58.583Z,96282.70
2023-10-25T15:56:26.434Z,96291.97
2023-10-25T15:58:54.320Z,96292.50
2023-10-25T16:01:31.770Z,96294.42
2023-10-25T16:03:57.866Z,96302.55
2023-10-25T16:06:25.773Z,96306.21
2023-10-25T16:08:53.565Z,96317.80
2023-10-25T16:11:21.471Z,96323.55
2023-10-25T16:13:49.136Z,96329.94
2023-10-25T16:16:16.731Z,96334.52
2023-10-25T16:18:45.009Z,96330.65
2023-10-25T16:21:13.188Z,96332.74
2023-10-25T16:23:43.576Z,96333.28
2023-10-25T16:26:13.344Z,96334.02
2023-10-25T16:28:43.224Z,96338.04
2023-10-25T16:31:11.723Z,96336.23
2023-10-25T16:33:41.306Z,96341.95
2023-10-25T16:36:14.058Z,96340.72
2023-10-25T16:38:42.269Z,96340.64
2023-10-25T16:41:13.605Z,96342.30
2023-10-25T16:43:41.676Z,96341.11
2023-10-25T16:46:12.878Z,96339.12
2023-10-25T16:48:44.741Z,96346.59
2023-10-25T16:51:19.050Z,96348.24
2023-10-25T16:53:49.660Z,96350.53
2023-10-25T16:56:22.060Z,96353.72
2023-10-25T16:58:51.326Z,96353.87
2023-10-25T17:01:19.269Z,96358.63
2023-10-25T17:03:47.266Z,96358.75
2023-10-25T17:06:16.183Z,96357.36
2023-10-25T17:08:45.498Z,96355.52
2023-10-25T17:11:13.498Z,96361.49
2023-10-25T17:13:41.496Z,96372.06
2023-10-25T17:16:09.600Z,96363.30
2023-10-25T17:18:40.570Z,96362.84
2023-10-25T17:21:10.867Z,96353.50
2023-10-25T17:23:38.820Z,96343.77
2023-10-25T17:26:07.081Z,96345.66
2023-10-25T17:28:35.036Z,96349.27
2023-10-25T17:31:03.074Z,96347.61
2023-10-25T17:33:31.077Z,96350.59
2023-10-25T17:36:00.717Z,96354.55
2023-10-25T17:38:29.129Z,96348.63
2023-10-25T17:40:58.275Z,96336.77
2023-10-25T17:43:26.680Z,96330.65
2023-10-25T17:48:28.856Z,96339.11
2023-10-25T17:50:57.274Z,96344.41
2023-10-25T17:53:32.354Z,96353.79
2023-10-25T17:56:03.047Z,96354.86
2023-10-25T17:58:32.824Z,96343.23
2023-10-25T18:01:00.738Z,96337.30
2023-10-25T18:03:28.874Z,96333.00
2023-10-25T18:06:05.235Z,96337.56
2023-10-25T18:08:33.668Z,96348.23
2023-10-25T18:11:03.345Z,96354.48
2023-10-25T18:13:31.955Z,96364.97
2023-10-25T18:16:01.286Z,96383.41
2023-10-25T18:18:31.287Z,96383.51
2023-10-25T18:20:59.830Z,96375.70
2023-10-25T18:23:29.766Z,96366.00
2023-10-25T18:26:05.025Z,96364.02
2023-10-25T18:28:35.468Z,96358.13
2023-10-25T18:31:58.351Z,96360.77
2023-10-25T18:33:39.599Z,96366.08
2023-10-25T18:36:09.179Z,96373.96
2023-10-25T18:38:44.022Z,96380.70
2023-10-25T18:41:15.251Z,96387.80
2023-10-25T18:43:49.491Z,96384.33
2023-10-25T18:46:17.431Z,96383.76
2023-10-25T18:48:45.643Z,96390.49
2023-10-25T18:51:13.507Z,96407.43
2023-10-25T18:53:41.597Z,96419.55
2023-10-25T18:56:09.583Z,96422.82
2023-10-25T18:58:40.110Z,96424.73
2023-10-25T19:01:16.956Z,96422.25
2023-10-25T19:03:50.608Z,96418.98
2023-10-25T19:06:24.620Z,96424.81
2023-10-25T19:08:48.513Z,96432.16
2023-10-25T19:11:16.281Z,96434.30
2023-10-25T19:13:45.816Z,96448.31
2023-10-25T19:16:13.521Z,96442.39
2023-10-25T19:18:42.993Z,96436.42
2023-10-25T19:21:10.995Z,96433.66
2023-10-25T19:23:44.077Z,96431.67
2023-10-25T19:26:12.307Z,96422.95
2023-10-25T19:28:42.071Z,96422.18
2023-10-25T19:31:11.478Z,96416.02
2023-10-25T19:33:43.656Z,96407.16
2023-10-25T19:36:19.880Z,96403.45
2023-10-25T19:38:48.405Z,96396.31
2023-10-25T19:41:16.522Z,96390.48
2023-10-25T19:43:44.543Z,96396.02
2023-10-25T19:46:12.603Z,96387.66
2023-10-25T19:48:40.268Z,96381.77
2023-10-25T19:51:16.129Z,96376.67
2023-10-25T19:53:44.248Z,96381.78
2023-10-25T19:56:12.893Z,96378.02
2023-10-25T19:58:40.867Z,96381.77
2023-10-25T20:01:08.673Z,96376.81
2023-10-25T20:03:36.687Z,96387.92
2023-10-25T20:06:10.097Z,96380.70
2023-10-25T20:08:37.879Z,96384.50
2023-10-25T20:11:06.589Z,96378.84
2023-10-25T20:13:34.377Z,96373.95
2023-10-25T20:16:06.003Z,96374.66
2023-10-25T20:18:36.325Z,96371.88
2023-10-25T20:21:08.874Z,96374.06
2023-10-25T20:23:36.857Z,96372.63
2023-10-25T20:26:11.595Z,96360.81
2023-10-25T20:28:36.651Z,96360.86
2023-10-25T20:31:06.341Z,96353.08
2023-10-25T20:33:34.393Z,96356.23
2023-10-25T20:36:02.232Z,96354.80
2023-10-25T20:38:33.603Z,96361.68
2023-10-25T20:41:08.299Z,96348.57
2023-10-25T20:43:36.334Z,96352.60
2023-10-25T20:46:04.854Z,96356.22
2023-10-25T20:48:33.020Z,96363.28
2023-10-25T20:51:05.819Z,96366.53
2023-10-25T20:53:33.908Z,96372.40
2023-10-25T20:56:02.116Z,96370.16
2023-10-25T20:58:30.642Z,96362.43
2023-10-25T21:00:58.394Z,96358.77
2023-10-25T21:03:26.324Z,96356.07
2023-10-25T21:05:55.700Z,96346.78
2023-10-25T21:08:23.833Z,96350.25
2023-10-25T21:10:52.276Z,96354.98
2023-10-25T21:13:20.407Z,96357.37
2023-10-25T21:15:49.583Z,96367.38
2023-10-25T21:18:17.416Z,96355.16
2023-10-25T21:20:51.834Z,96356.89
2023-10-25T21:23:19.910Z,96360.98
2023-10-25T21:25:47.854Z,96350.05
2023-10-25T21:28:16.164Z,96346.83
2023-10-25T21:30:44.078Z,96344.17
2023-10-25T21:33:11.833Z,96343.88
2023-10-25T21:35:39.816Z,96343.33
2023-10-25T21:38:07.545Z,96336.31
2023-10-25T21:40:37.651Z,96329.52
2023-10-25T21:43:06.717Z,96329.06
2023-10-25T21:45:34.578Z,96314.77
2023-10-25T21:48:02.360Z,96321.09
2023-10-25T21:50:30.418Z,96326.92
2023-10-25T21:52:58.199Z,96327.61
2023-10-25T21:55:26.323Z,96321.78
2023-10-25T21:59:47.051Z,96323.81
2023-10-25T22:00:26.081Z,96332.42
2023-10-25T22:02:54.398Z,96326.07
2023-10-25T22:05:22.777Z,96331.23
2023-10-25T22:07:50.693Z,96328.19
2023-10-25T22:10:18.606Z,96325.95
2023-10-25T22:12:46.444Z,96315.76
2023-10-25T22:15:14.712Z,96311.52
2023-10-25T22:17:43.192Z,96314.98
2023-10-25T22:20:13.098Z,96320.70
2023-10-25T22:22:41.276Z,96325.30
2023-10-25T22:25:09.287Z,96335.02
2023-10-25T22:27:37.096Z,96328.20
2023-10-25T22:30:06.721Z,96324.75
2023-10-25T22:32:34.494Z,96321.28
2023-10-25T22:35:03.170Z,96325.52
2023-10-25T22:37:31.217Z,96316.12
2023-10-25T22:40:01.155Z,96314.22
2023-10-25T22:42:29.177Z,96315.56
2023-10-25T22:44:57.190Z,96316.02
2023-10-25T22:47:26.967Z,96316.02
2023-10-25T22:49:54.692Z,96312.77
2023-10-25T22:52:22.677Z,96313.99
2023-10-25T22:54:50.280Z,96317.66
2023-10-25T22:57:18.011Z,96317.09
2023-10-25T22:59:45.938Z,96309.41
2023-10-25T23:02:13.399Z,96306.72
2023-10-25T23:04:41.185Z,96303.27
2023-10-25T23:07:10.856Z,96309.19
2023-10-25T23:09:38.670Z,96307.85
2023-10-25T23:12:07.502Z,96302.81
2023-10-25T23:14:35.666Z,96295.68
2023-10-25T23:17:03.733Z,96293.33
2023-10-25T23:19:31.800Z,96301.48
2023-10-25T23:21:59.783Z,96293.23
2023-10-25T23:24:27.782Z,96290.45
2023-10-25T23:26:57.526Z,96296.73
2023-10-25T23:29:29.731Z,96295.72
2023-10-25T23:31:57.730Z,96298.97
2023-10-25T23:34:25.621Z,96293.39
2023-10-25T23:36:53.703Z,96291.81
2023-10-25T23:39:21.685Z,96291.03
2023-10-25T23:41:49.577Z,96295.50
2023-10-25T23:44:17.350Z,96298.97
2023-10-25T23:46:45.054Z,96290.35
2023-10-25T23:49:12.875Z,96294.38
2023-10-25T23:51:40.758Z,96290.56
2023-10-25T23:54:52.507Z,96286.78
2023-10-25T23:56:38.241Z,96280.28
2023-10-25T23:59:06.315Z,96278.16
